Time;durP1;ratioP1;P1;durP2;ratioP2;P2;SDS_P1;SDS_P2;PMS_P1;PMS_P2;Temp;Humidity;BMP_temperature;BMP_pressure;BME280_temperature;BME280_humidity;BME280_pressure;Samples;Min_cycle;Max_cycle;Signal;HPM_P1;HPM_P2
2023/09/25 00:00:19;;;;;;;0.82;0.60;;;17.50;81.20;;;;;;6279594;22;20026;-73
2023/09/25 00:02:46;;;;;;;1.13;0.65;;;17.50;80.70;;;;;;6307136;22;20078;-73
2023/09/25 00:05:12;;;;;;;0.73;0.57;;;17.40;80.60;;;;;;6307186;22;20027;-73
2023/09/25 00:07:39;;;;;;;3.00;0.70;;;17.50;80.00;;;;;;6307333;22;20321;-73
2023/09/25 00:10:07;;;;;;;1.48;0.65;;;17.50;80.00;;;;;;6307383;22;19999;-73
2023/09/25 00:12:33;;;;;;;1.58;0.80;;;17.40;79.50;;;;;;6306939;22;20011;-72
2023/09/25 00:14:59;;;;;;;3.42;0.88;;;17.40;79.50;;;;;;6306772;22;20023;-73
2023/09/25 00:17:24;;;;;;;1.67;0.88;;;17.40;79.50;;;;;;6307187;22;20011;-73
2023/09/25 00:19:50;;;;;;;1.35;0.70;;;17.40;79.20;;;;;;6307242;22;20029;-74
2023/09/25 00:22:16;;;;;;;1.55;0.82;;;17.40;79.10;;;;;;6307045;22;19995;-73
2023/09/25 00:24:42;;;;;;;3.38;0.70;;;17.40;79.10;;;;;;6306700;22;20010;-73
2023/09/25 00:27:09;;;;;;;1.40;0.60;;;17.40;79.50;;;;;;6307318;22;20004;-73
2023/09/25 00:29:35;;;;;;;3.63;1.13;;;17.40;79.20;;;;;;6307073;22;20010;-73
2023/09/25 00:32:00;;;;;;;2.15;0.93;;;17.50;78.20;;;;;;6307080;22;20117;-73
2023/09/25 00:34:26;;;;;;;2.10;0.60;;;17.40;78.00;;;;;;6306789;22;20038;-73
2023/09/25 00:36:52;;;;;;;2.17;0.80;;;17.40;77.80;;;;;;6306742;22;20003;-73
2023/09/25 00:39:17;;;;;;;1.45;0.70;;;17.40;78.80;;;;;;6307295;22;20496;-73
2023/09/25 00:41:43;;;;;;;1.10;0.60;;;17.40;78.80;;;;;;6307146;22;20042;-74
2023/09/25 00:44:09;;;;;;;1.33;0.80;;;17.40;78.70;;;;;;6279503;22;20003;-74
2023/09/25 00:46:35;;;;;;;1.17;0.60;;;17.30;79.00;;;;;;6306694;22;19999;-73
2023/09/25 00:49:01;;;;;;;1.20;0.70;;;17.40;78.80;;;;;;6279203;22;19999;-73
2023/09/25 00:51:27;;;;;;;1.73;0.60;;;17.30;78.50;;;;;;6307176;22;20008;-73
2023/09/25 00:53:53;;;;;;;2.35;0.80;;;17.30;78.90;;;;;;6306941;22;20007;-74
2023/09/25 00:56:19;;;;;;;2.75;0.80;;;17.30;78.80;;;;;;6306578;22;20026;-73
2023/09/25 00:58:46;;;;;;;2.40;0.80;;;17.30;79.10;;;;;;6304376;22;20079;-74
2023/09/25 01:01:12;;;;;;;5.53;0.90;;;17.20;79.20;;;;;;6276052;22;20488;-74
2023/09/25 01:03:38;;;;;;;2.85;0.65;;;17.20;79.50;;;;;;6276264;22;20057;-74
2023/09/25 01:06:05;;;;;;;2.55;0.75;;;17.10;80.80;;;;;;6306402;22;19997;-73
2023/09/25 01:08:30;;;;;;;3.72;0.90;;;17.00;80.50;;;;;;6306905;22;20003;-74
2023/09/25 01:10:57;;;;;;;0.80;0.50;;;16.90;80.90;;;;;;6307215;22;20448;-74
2023/09/25 01:13:23;;;;;;;3.05;0.70;;;16.90;81.40;;;;;;6306395;22;20018;-74
2023/09/25 01:15:49;;;;;;;4.07;0.82;;;16.90;82.00;;;;;;6306656;22;20003;-73
2023/09/25 01:18:15;;;;;;;1.63;0.88;;;16.80;82.10;;;;;;6306590;22;20588;-74
2023/09/25 01:20:40;;;;;;;3.80;0.65;;;16.80;82.80;;;;;;6279225;22;20003;-74
2023/09/25 01:23:07;;;;;;;1.90;0.65;;;16.70;83.10;;;;;;6306803;22;20003;-74
2023/09/25 01:25:32;;;;;;;2.45;0.85;;;16.60;82.70;;;;;;6306059;22;20515;-73
2023/09/25 01:27:58;;;;;;;4.32;1.10;;;16.70;83.10;;;;;;6306419;22;20081;-74
2023/09/25 01:30:24;;;;;;;2.78;0.75;;;16.70;83.10;;;;;;6307004;22;19999;-74
2023/09/25 01:32:51;;;;;;;1.35;0.60;;;16.70;83.90;;;;;;6306633;22;20484;-74
2023/09/25 01:35:26;;;;;;;1.73;1.05;;;16.70;84.30;;;;;;6306758;22;20251;-75
2023/09/25 01:38:00;;;;;;;1.08;0.80;;;16.70;84.40;;;;;;6306880;22;20064;-74
2023/09/25 01:40:26;;;;;;;1.85;0.80;;;16.70;83.90;;;;;;6306093;22;20325;-74
2023/09/25 01:42:52;;;;;;;4.10;0.73;;;16.70;83.80;;;;;;6306009;22;19999;-74
2023/09/25 01:45:19;;;;;;;1.27;0.77;;;16.60;83.90;;;;;;6306591;22;20005;-74
2023/09/25 01:47:50;;;;;;;1.42;0.52;;;16.60;84.00;;;;;;6306824;22;20003;-73
2023/09/25 01:50:18;;;;;;;2.83;0.90;;;16.50;84.40;;;;;;6280754;22;20363;-74
2023/09/25 01:52:46;;;;;;;3.55;0.70;;;16.60;84.90;;;;;;6306471;22;20003;-74
2023/09/25 01:55:12;;;;;;;2.92;0.80;;;16.50;84.90;;;;;;6306897;22;19999;-74
2023/09/25 01:57:37;;;;;;;1.75;0.80;;;16.50;85.00;;;;;;6279676;22;20315;-73
2023/09/25 02:00:10;;;;;;;2.97;0.90;;;16.40;85.30;;;;;;6306780;22;20004;-73
2023/09/25 02:02:36;;;;;;;5.68;0.75;;;16.40;85.50;;;;;;6306672;22;20302;-74
2023/09/25 02:05:03;;;;;;;5.43;0.80;;;16.30;85.90;;;;;;6306430;22;20000;-74
2023/09/25 02:07:29;;;;;;;1.23;0.80;;;16.40;86.50;;;;;;6306760;22;20315;-74
2023/09/25 02:09:54;;;;;;;1.52;0.70;;;16.40;86.90;;;;;;6306651;22;20001;-73
2023/09/25 02:12:20;;;;;;;1.42;0.70;;;16.30;86.70;;;;;;6306537;22;20003;-74
2023/09/25 02:14:46;;;;;;;1.48;0.70;;;16.30;86.80;;;;;;6279140;22;20007;-73
2023/09/25 02:17:11;;;;;;;2.33;1.23;;;16.40;86.70;;;;;;6306067;22;20102;-74
2023/09/25 02:19:37;;;;;;;5.30;0.75;;;16.30;86.30;;;;;;6306558;22;20011;-73
2023/09/25 02:22:06;;;;;;;5.18;0.63;;;16.40;86.00;;;;;;6306150;22;19995;-73
2023/09/25 02:24:36;;;;;;;1.73;0.60;;;16.40;85.70;;;;;;6306153;22;20022;-73
2023/09/25 02:27:02;;;;;;;1.67;0.70;;;16.40;85.50;;;;;;6306123;22;20006;-73
2023/09/25 02:29:29;;;;;;;2.58;0.70;;;16.40;85.50;;;;;;6306908;22;20026;-74
2023/09/25 02:31:55;;;;;;;2.10;0.80;;;16.40;85.80;;;;;;6306477;22;20046;-73
2023/09/25 02:34:20;;;;;;;3.22;0.80;;;16.40;85.90;;;;;;6306415;22;20007;-74
2023/09/25 02:36:46;;;;;;;3.53;0.80;;;16.40;86.00;;;;;;6307574;22;19999;-73
2023/09/25 02:39:13;;;;;;;2.33;0.80;;;16.40;86.20;;;;;;6308392;22;20007;-74
2023/09/25 02:41:39;;;;;;;1.83;0.75;;;16.40;86.20;;;;;;6308769;22;19999;-73
2023/09/25 02:44:05;;;;;;;3.17;0.68;;;16.30;86.30;;;;;;6308400;22;20009;-74
2023/09/25 02:46:31;;;;;;;0.90;0.68;;;16.30;86.20;;;;;;6308292;22;20019;-73
2023/09/25 02:48:57;;;;;;;3.42;0.80;;;16.20;86.40;;;;;;6308444;22;20006;-73
2023/09/25 02:51:23;;;;;;;1.85;0.80;;;16.20;86.60;;;;;;6308235;22;20007;-74
2023/09/25 02:53:49;;;;;;;1.33;0.70;;;16.20;86.80;;;;;;6307932;22;20090;-74
2023/09/25 02:56:14;;;;;;;1.52;0.80;;;16.20;86.80;;;;;;6308142;22;19996;-73
2023/09/25 02:58:40;;;;;;;1.38;0.77;;;16.20;86.60;;;;;;6308277;22;20010;-73
2023/09/25 03:01:06;;;;;;;2.03;0.88;;;16.20;86.60;;;;;;6308322;22;20003;-73
2023/09/25 03:03:32;;;;;;;2.75;1.10;;;16.20;86.90;;;;;;6307632;22;19995;-74
2023/09/25 03:05:58;;;;;;;3.33;1.10;;;16.20;87.10;;;;;;6308027;22;20006;-73
2023/09/25 03:08:24;;;;;;;1.45;0.80;;;16.20;87.00;;;;;;6308112;22;19995;-74
2023/09/25 03:10:50;;;;;;;1.98;0.75;;;16.10;87.20;;;;;;6308084;22;20014;-73
2023/09/25 03:13:15;;;;;;;3.53;0.80;;;16.10;87.50;;;;;;6307650;22;20012;-74
2023/09/25 03:15:41;;;;;;;3.20;0.80;;;16.00;87.60;;;;;;6307725;22;20067;-74
2023/09/25 03:18:07;;;;;;;4.68;1.10;;;15.90;88.00;;;;;;6307902;22;20016;-73
2023/09/25 03:20:33;;;;;;;1.42;0.70;;;15.90;88.60;;;;;;6307758;22;20006;-74
2023/09/25 03:22:59;;;;;;;2.97;0.75;;;15.90;89.30;;;;;;6307337;22;20029;-74
2023/09/25 03:25:24;;;;;;;2.60;1.00;;;15.90;89.60;;;;;;6307125;22;20321;-73
2023/09/25 03:27:50;;;;;;;2.80;1.00;;;15.90;90.00;;;;;;6307832;22;20010;-74
2023/09/25 03:30:16;;;;;;;5.43;0.88;;;15.90;90.00;;;;;;6307807;22;20085;-74
2023/09/25 03:32:43;;;;;;;2.58;1.00;;;15.90;90.00;;;;;;6307759;22;20084;-74
2023/09/25 03:35:10;;;;;;;2.67;0.70;;;15.90;90.00;;;;;;6307954;22;20031;-74
2023/09/25 03:37:36;;;;;;;1.77;0.73;;;15.90;90.10;;;;;;6308087;22;20010;-73
2023/09/25 03:40:07;;;;;;;2.03;0.77;;;15.90;90.00;;;;;;6307546;22;20354;-74
2023/09/25 03:42:33;;;;;;;2.08;0.77;;;15.90;90.00;;;;;;6307431;22;20062;-74
2023/09/25 03:44:59;;;;;;;1.70;0.90;;;15.90;89.90;;;;;;6307510;22;20003;-73
2023/09/25 03:47:25;;;;;;;2.08;0.90;;;15.90;89.10;;;;;;6306984;22;20372;-73
2023/09/25 03:49:50;;;;;;;3.35;1.13;;;16.00;88.10;;;;;;6307451;22;20000;-73
2023/09/25 03:52:16;;;;;;;5.32;1.10;;;16.00;87.90;;;;;;6307679;22;20057;-73
2023/09/25 03:54:42;;;;;;;2.40;0.80;;;15.90;88.00;;;;;;6307612;22;20329;-74
2023/09/25 03:57:08;;;;;;;3.67;1.00;;;15.90;88.40;;;;;;6307561;22;20357;-74
2023/09/25 03:59:33;;;;;;;5.55;0.90;;;15.90;89.00;;;;;;6307096;22;20003;-73
2023/09/25 04:01:59;;;;;;;1.98;0.98;;;15.90;88.80;;;;;;6307405;22;20003;-75
2023/09/25 04:04:25;;;;;;;1.45;0.70;;;15.80;88.50;;;;;;6307096;22;20307;-74
2023/09/25 04:06:51;;;;;;;4.32;1.15;;;15.80;88.80;;;;;;6279543;22;20049;-74
2023/09/25 04:09:16;;;;;;;2.30;0.88;;;15.80;89.60;;;;;;6307234;22;20003;-73
2023/09/25 04:11:42;;;;;;;3.60;1.00;;;15.80;90.00;;;;;;6307499;22;20017;-73
2023/09/25 04:14:08;;;;;;;4.55;0.90;;;15.80;89.90;;;;;;6307383;22;20144;-73
2023/09/25 04:16:33;;;;;;;3.03;1.27;;;15.80;89.40;;;;;;6307166;22;20307;-73
2023/09/25 04:18:59;;;;;;;6.40;1.00;;;15.80;89.00;;;;;;6306884;22;20056;-73
2023/09/25 04:21:25;;;;;;;6.55;0.88;;;15.80;89.00;;;;;;6307529;22;19995;-72
2023/09/25 04:23:51;;;;;;;2.92;1.00;;;15.70;89.20;;;;;;6307448;22;20018;-73
2023/09/25 04:26:17;;;;;;;4.28;1.10;;;15.70;89.00;;;;;;6279568;22;20003;-73
2023/09/25 04:28:43;;;;;;;2.17;0.90;;;15.70;88.80;;;;;;6306985;22;20105;-73
2023/09/25 04:31:12;;;;;;;3.65;0.90;;;15.80;88.70;;;;;;6306779;22;20000;-74
2023/09/25 04:33:38;;;;;;;3.05;0.77;;;15.70;88.80;;;;;;6306630;22;20012;-73
2023/09/25 04:36:08;;;;;;;1.33;0.80;;;15.70;89.40;;;;;;6307061;22;20002;-74
2023/09/25 04:38:35;;;;;;;3.08;0.90;;;15.70;89.50;;;;;;6279511;22;20003;-73
2023/09/25 04:41:01;;;;;;;2.05;1.00;;;15.60;89.70;;;;;;6306990;22;20070;-73
2023/09/25 04:43:26;;;;;;;6.65;1.05;;;15.60;90.00;;;;;;6279775;22;20092;-73
2023/09/25 04:45:52;;;;;;;4.57;1.20;;;15.60;90.00;;;;;;6306851;22;20006;-73
2023/09/25 04:48:21;;;;;;;2.45;0.90;;;15.60;90.00;;;;;;6306472;22;20448;-72
2023/09/25 04:50:48;;;;;;;3.83;0.90;;;15.60;90.10;;;;;;6307317;22;20421;-73
2023/09/25 04:53:14;;;;;;;4.75;1.00;;;15.60;90.10;;;;;;6306895;22;20086;-74
2023/09/25 04:55:40;;;;;;;5.30;1.73;;;15.60;90.20;;;;;;6306884;22;19999;-73
2023/09/25 04:58:06;;;;;;;4.97;0.90;;;15.60;90.30;;;;;;6306285;22;20074;-73
2023/09/25 05:00:32;;;;;;;2.83;0.95;;;15.60;90.40;;;;;;6306881;22;19999;-73
2023/09/25 05:02:59;;;;;;;4.28;0.95;;;15.60;90.50;;;;;;6307272;22;20049;-73
2023/09/25 05:05:25;;;;;;;2.08;0.75;;;15.60;90.60;;;;;;6306681;22;20002;-73
2023/09/25 05:07:54;;;;;;;2.30;0.95;;;15.60;90.60;;;;;;6306864;22;19999;-73
2023/09/25 05:10:23;;;;;;;4.97;1.17;;;15.60;90.70;;;;;;6306383;22;20022;-74
2023/09/25 05:12:49;;;;;;;1.77;1.05;;;15.50;90.70;;;;;;6306817;22;20011;-74
2023/09/25 05:15:16;;;;;;;6.53;0.93;;;15.60;90.80;;;;;;6305402;22;19999;-73
2023/09/25 05:17:43;;;;;;;3.10;1.10;;;15.50;90.80;;;;;;6285673;22;20090;-74
2023/09/25 05:20:12;;;;;;;5.63;1.15;;;15.50;90.90;;;;;;6304578;22;20318;-73
2023/09/25 05:22:43;;;;;;;2.88;1.45;;;15.50;91.00;;;;;;6304575;22;20033;-74
2023/09/25 05:25:10;;;;;;;2.72;1.17;;;15.50;91.10;;;;;;6305167;22;20030;-74
2023/09/25 05:27:37;;;;;;;3.45;1.20;;;15.50;91.10;;;;;;6306154;22;20419;-73
2023/09/25 05:30:05;;;;;;;3.25;1.00;;;15.50;91.20;;;;;;6306171;22;20322;-73
2023/09/25 05:32:34;;;;;;;4.88;1.20;;;15.50;91.20;;;;;;6305790;22;19999;-73
2023/09/25 05:34:59;;;;;;;3.40;1.10;;;15.50;91.30;;;;;;6306464;22;20008;-73
2023/09/25 05:37:25;;;;;;;2.53;1.52;;;15.50;91.40;;;;;;6306836;22;20057;-73
2023/09/25 05:39:51;;;;;;;3.25;1.00;;;15.60;91.50;;;;;;6307307;22;19999;-73
2023/09/25 05:42:17;;;;;;;6.13;1.65;;;15.60;91.60;;;;;;6306960;22;20004;-74
2023/09/25 05:44:42;;;;;;;4.75;1.10;;;15.60;91.50;;;;;;6306965;22;20086;-73
2023/09/25 05:47:08;;;;;;;5.78;1.00;;;15.60;91.50;;;;;;6305249;22;20021;-74
2023/09/25 05:49:34;;;;;;;4.25;1.40;;;15.60;91.50;;;;;;6306953;22;20006;-74
2023/09/25 05:52:00;;;;;;;5.28;1.10;;;15.60;91.40;;;;;;6306429;22;20074;-73
2023/09/25 05:54:25;;;;;;;2.47;0.80;;;15.60;91.20;;;;;;6306467;22;20008;-74
2023/09/25 05:56:51;;;;;;;5.57;0.90;;;15.70;91.30;;;;;;6306140;22;20010;-74
2023/09/25 05:59:17;;;;;;;5.95;1.20;;;15.70;91.30;;;;;;6306172;22;20030;-74
2023/09/25 06:01:43;;;;;;;27.85;4.20;;;15.80;91.20;;;;;;6306475;22;20014;-74
2023/09/25 06:04:09;;;;;;;27.88;4.07;;;15.80;91.30;;;;;;6306540;22;20034;-74
2023/09/25 06:06:38;;;;;;;28.58;3.83;;;15.80;91.40;;;;;;6305214;22;20455;-73
2023/09/25 06:09:08;;;;;;;31.02;4.20;;;15.80;91.50;;;;;;6306847;22;20027;-73
2023/09/25 06:11:37;;;;;;;15.90;3.33;;;15.80;91.50;;;;;;6307821;22;20006;-74
2023/09/25 06:14:03;;;;;;;12.00;2.28;;;15.80;91.60;;;;;;6308100;22;20011;-74
2023/09/25 06:16:28;;;;;;;19.00;3.58;;;15.80;91.60;;;;;;6307945;22;20038;-74
2023/09/25 06:18:54;;;;;;;21.05;2.47;;;15.80;91.60;;;;;;6308119;22;20015;-74
2023/09/25 06:21:20;;;;;;;10.95;1.95;;;15.90;92.00;;;;;;6308064;22;20405;-74
2023/09/25 06:23:48;;;;;;;8.70;1.20;;;15.90;91.70;;;;;;6308405;22;20404;-74
2023/09/25 06:26:15;;;;;;;5.53;1.40;;;15.90;91.70;;;;;;6307861;22;19999;-74
2023/09/25 06:28:42;;;;;;;5.60;1.50;;;15.90;91.80;;;;;;6278332;22;20447;-74
2023/09/25 06:31:08;;;;;;;3.90;1.40;;;16.00;91.90;;;;;;6308808;22;20022;-74
2023/09/25 06:33:34;;;;;;;3.65;1.15;;;16.00;91.90;;;;;;6308619;22;20053;-73
2023/09/25 06:36:00;;;;;;;3.47;1.73;;;16.00;91.90;;;;;;6308769;22;20364;-74
2023/09/25 06:38:26;;;;;;;3.25;1.25;;;16.10;91.90;;;;;;6307562;22;20003;-74
2023/09/25 06:40:51;;;;;;;4.28;1.25;;;16.10;92.00;;;;;;6306268;22;20003;-73
2023/09/25 06:43:17;;;;;;;2.55;1.25;;;16.10;91.90;;;;;;6306231;22;19999;-74
2023/09/25 06:45:44;;;;;;;3.63;1.00;;;16.10;91.90;;;;;;6306473;22;20448;-73
2023/09/25 06:48:10;;;;;;;2.28;1.00;;;16.10;91.70;;;;;;6306266;22;20384;-73
2023/09/25 06:50:36;;;;;;;5.78;1.20;;;16.20;91.50;;;;;;6307421;22;20048;-74
2023/09/25 06:53:03;;;;;;;4.65;1.10;;;16.20;91.50;;;;;;6307317;22;20007;-74
2023/09/25 06:55:30;;;;;;;2.20;1.10;;;16.30;91.60;;;;;;6308719;22;20006;-73
2023/09/25 06:57:56;;;;;;;1.90;1.05;;;16.40;91.80;;;;;;6281338;22;20003;-73
2023/09/25 07:00:23;;;;;;;1.58;0.90;;;16.40;91.60;;;;;;6308592;22;20325;-73
2023/09/25 07:02:50;;;;;;;1.60;1.10;;;16.50;91.40;;;;;;6308729;22;20092;-73
2023/09/25 07:05:16;;;;;;;3.90;1.25;;;16.60;91.40;;;;;;6309039;22;20042;-73
2023/09/25 07:07:42;;;;;;;17.58;2.47;;;16.60;91.30;;;;;;6308491;22;20003;-73
2023/09/25 07:10:10;;;;;;;16.58;1.92;;;16.70;91.40;;;;;;6308189;22;20472;-73
2023/09/25 07:12:38;;;;;;;14.10;1.90;;;16.80;91.60;;;;;;6308104;22;20003;-74
2023/09/25 07:15:05;;;;;;;16.42;2.35;;;16.90;91.70;;;;;;6308496;22;20006;-73
2023/09/25 07:17:30;;;;;;;8.05;1.73;;;16.90;91.50;;;;;;6307980;22;20018;-73
2023/09/25 07:19:56;;;;;;;6.38;1.13;;;16.90;91.40;;;;;;6308516;22;20026;-74
2023/09/25 07:22:23;;;;;;;6.47;1.13;;;17.00;91.10;;;;;;6307618;22;20002;-72
2023/09/25 07:24:50;;;;;;;7.13;1.38;;;17.00;90.80;;;;;;6308500;22;19996;-73
2023/09/25 07:27:16;;;;;;;9.00;1.20;;;17.00;90.70;;;;;;6281072;22;20064;-73
2023/09/25 07:29:46;;;;;;;3.35;1.05;;;17.00;90.50;;;;;;6307918;22;19999;-73
2023/09/25 07:32:12;;;;;;;5.03;1.10;;;17.00;90.50;;;;;;6280713;22;20065;-73
2023/09/25 07:34:39;;;;;;;6.40;1.23;;;17.10;90.60;;;;;;6308146;22;20082;-72
2023/09/25 07:37:05;;;;;;;7.63;1.15;;;17.10;90.70;;;;;;6308386;22;20030;-73
2023/09/25 07:39:40;;;;;;;7.20;1.30;;;17.20;90.60;;;;;;6307991;22;20014;-73
2023/09/25 07:42:06;;;;;;;3.63;1.10;;;17.20;90.60;;;;;;6308145;22;19995;-73
2023/09/25 07:44:34;;;;;;;4.72;1.30;;;17.30;90.50;;;;;;6308228;22;20010;-73
2023/09/25 07:47:10;;;;;;;9.93;1.30;;;17.30;90.30;;;;;;6308284;22;20088;-73
2023/09/25 07:49:40;;;;;;;9.63;1.30;;;17.40;90.20;;;;;;6307713;22;20082;-74
2023/09/25 07:52:15;;;;;;;6.43;1.00;;;17.50;90.20;;;;;;6307581;22;19995;-73
2023/09/25 07:54:44;;;;;;;5.05;1.23;;;17.50;90.30;;;;;;6307416;22;20011;-74
2023/09/25 07:57:20;;;;;;;9.02;1.58;;;17.60;90.50;;;;;;6307967;22;20045;-77
2023/09/25 07:59:46;;;;;;;6.30;1.38;;;17.70;90.40;;;;;;6307517;22;20007;-77
2023/09/25 08:02:16;;;;;;;10.27;1.67;;;17.80;90.40;;;;;;6307964;22;20000;-78
2023/09/25 08:04:44;;;;;;;4.82;1.08;;;17.80;90.60;;;;;;6307572;22;20000;-74
2023/09/25 08:07:11;;;;;;;4.40;1.40;;;17.90;90.20;;;;;;6307580;22;20483;-75
2023/09/25 08:09:37;;;;;;;5.15;1.48;;;18.00;90.00;;;;;;6307421;22;20418;-75
2023/09/25 08:12:03;;;;;;;2.10;1.13;;;18.10;89.90;;;;;;6307553;22;20006;-73
2023/09/25 08:14:29;;;;;;;6.32;1.15;;;18.10;89.60;;;;;;6307415;22;20019;-74
2023/09/25 08:16:55;;;;;;;3.83;1.00;;;18.20;89.20;;;;;;6307525;22;20053;-73
2023/09/25 08:19:22;;;;;;;3.63;1.25;;;18.20;88.60;;;;;;6307317;22;20007;-74
2023/09/25 08:21:50;;;;;;;3.25;1.00;;;18.30;88.20;;;;;;6307634;22;20069;-75
2023/09/25 08:24:16;;;;;;;5.93;1.38;;;18.30;88.00;;;;;;6307240;22;20052;-75
2023/09/25 08:26:46;;;;;;;2.00;0.98;;;18.30;88.50;;;;;;6307377;22;20003;-74
2023/09/25 08:29:13;;;;;;;2.95;1.10;;;18.30;88.80;;;;;;6280540;22;20011;-74
2023/09/25 08:31:41;;;;;;;2.80;1.00;;;18.30;88.80;;;;;;6308062;22;20325;-75
2023/09/25 08:34:07;;;;;;;4.93;1.10;;;18.30;88.60;;;;;;6307515;22;20038;-74
2023/09/25 08:36:33;;;;;;;3.88;1.00;;;18.30;88.60;;;;;;6307590;22;20000;-74
2023/09/25 08:38:59;;;;;;;2.45;0.82;;;18.30;88.90;;;;;;6307316;22;20068;-74
2023/09/25 08:41:26;;;;;;;2.38;0.93;;;18.30;88.90;;;;;;6307107;22;20441;-74
2023/09/25 08:43:52;;;;;;;1.65;0.85;;;18.30;88.70;;;;;;6307652;22;20010;-75
2023/09/25 08:46:19;;;;;;;1.75;0.95;;;18.30;88.40;;;;;;6280225;22;20008;-75
2023/09/25 08:48:47;;;;;;;3.05;0.85;;;18.40;89.70;;;;;;6307684;22;20057;-75
2023/09/25 08:51:13;;;;;;;2.03;0.90;;;18.40;89.00;;;;;;6306885;22;20007;-74
2023/09/25 08:53:39;;;;;;;3.33;1.30;;;18.50;88.40;;;;;;6307293;22;20007;-74
2023/09/25 08:56:06;;;;;;;2.20;1.00;;;18.60;86.90;;;;;;6307001;22;20003;-75
2023/09/25 08:58:33;;;;;;;2.67;0.95;;;18.70;86.40;;;;;;6279530;22;20011;-74
2023/09/25 09:00:58;;;;;;;1.77;0.90;;;18.80;85.80;;;;;;6307045;22;20094;-75
2023/09/25 09:03:27;;;;;;;4.20;1.00;;;18.90;85.90;;;;;;6307070;22;20038;-74
2023/09/25 09:05:53;;;;;;;3.45;0.85;;;18.90;85.50;;;;;;6307341;22;20010;-74
2023/09/25 09:08:19;;;;;;;1.67;0.90;;;19.10;85.70;;;;;;6307232;22;20006;-74
2023/09/25 09:10:45;;;;;;;1.75;1.00;;;19.20;85.10;;;;;;6279753;22;20004;-73
2023/09/25 09:13:11;;;;;;;2.83;0.70;;;19.30;84.30;;;;;;6306871;22;20421;-74
2023/09/25 09:15:38;;;;;;;3.28;0.80;;;19.40;82.90;;;;;;6306934;22;19995;-74
2023/09/25 09:18:18;;;;;;;3.13;1.02;;;19.60;82.90;;;;;;6306382;22;20101;-74
2023/09/25 09:20:44;;;;;;;1.80;1.00;;;19.60;83.40;;;;;;6307021;22;20057;-75
2023/09/25 09:23:10;;;;;;;1.45;0.80;;;19.70;83.50;;;;;;6306987;22;20035;-74
2023/09/25 09:25:36;;;;;;;4.07;1.00;;;19.80;84.70;;;;;;6307285;22;20427;-74
2023/09/25 09:28:08;;;;;;;1.60;0.88;;;19.90;82.70;;;;;;6307181;22;20026;-73
2023/09/25 09:30:33;;;;;;;5.43;1.25;;;20.10;81.40;;;;;;6307180;22;20021;-75
2023/09/25 09:32:59;;;;;;;2.00;1.00;;;20.10;80.70;;;;;;6307098;22;20429;-75
2023/09/25 09:35:25;;;;;;;3.78;1.10;;;20.20;81.30;;;;;;6306911;22;20437;-74
2023/09/25 09:37:55;;;;;;;2.88;1.10;;;20.30;80.60;;;;;;6306744;22;19999;-74
2023/09/25 09:40:24;;;;;;;1.90;1.35;;;20.30;80.80;;;;;;6307029;22;20007;-75
2023/09/25 09:42:50;;;;;;;1.83;1.20;;;20.40;80.60;;;;;;6307012;22;20039;-75
2023/09/25 09:45:17;;;;;;;2.22;1.00;;;20.50;79.90;;;;;;6306331;22;19995;-74
2023/09/25 09:47:46;;;;;;;4.07;1.33;;;20.50;78.30;;;;;;6309042;22;20038;-74
2023/09/25 09:50:13;;;;;;;3.15;1.20;;;20.60;77.70;;;;;;6308283;22;20325;-75
2023/09/25 09:52:40;;;;;;;4.13;1.17;;;20.70;77.80;;;;;;6308512;22;20007;-74
2023/09/25 09:55:08;;;;;;;2.75;1.02;;;20.70;77.40;;;;;;6308932;22;20009;-74
2023/09/25 09:57:34;;;;;;;2.55;1.00;;;20.80;76.60;;;;;;6308210;22;20433;-75
2023/09/25 10:00:00;;;;;;;4.32;1.20;;;20.90;76.60;;;;;;6308732;22;20007;-72
2023/09/25 10:02:30;;;;;;;1.42;0.90;;;20.90;77.70;;;;;;6308283;22;20333;-75
2023/09/25 10:04:57;;;;;;;3.80;1.42;;;21.00;77.40;;;;;;6309022;22;20325;-74
2023/09/25 10:07:23;;;;;;;1.50;0.90;;;21.00;77.60;;;;;;6308978;22;20060;-74
2023/09/25 10:10:06;;;;;;;4.50;1.17;;;21.10;78.80;;;;;;6309033;22;20003;-75
2023/09/25 10:12:38;;;;;;;2.60;1.02;;;21.10;76.90;;;;;;6308717;22;20011;-76
2023/09/25 10:15:07;;;;;;;2.20;1.10;;;21.20;77.00;;;;;;6308987;22;20086;-74
2023/09/25 10:17:39;;;;;;;2.58;1.25;;;21.30;77.30;;;;;;6308759;22;20042;-75
2023/09/25 10:20:26;;;;;;;3.80;1.30;;;21.40;75.20;;;;;;6309000;22;20349;-74
2023/09/25 10:22:51;;;;;;;2.58;1.25;;;21.50;75.20;;;;;;6308911;22;19999;-74
2023/09/25 10:25:17;;;;;;;4.72;1.10;;;21.60;73.20;;;;;;6308742;22;20006;-74
2023/09/25 10:27:44;;;;;;;2.33;1.20;;;21.70;72.90;;;;;;6308516;22;20006;-74
2023/09/25 10:30:15;;;;;;;1.23;0.90;;;21.70;74.00;;;;;;6308208;22;20003;-74
2023/09/25 10:32:49;;;;;;;2.53;1.30;;;21.70;74.40;;;;;;6308658;22;20270;-73
2023/09/25 10:35:37;;;;;;;6.85;1.85;;;21.80;74.70;;;;;;6308884;22;19999;-74
2023/09/25 10:38:12;;;;;;;5.95;1.10;;;21.90;74.10;;;;;;6308604;22;20042;-76
2023/09/25 10:40:42;;;;;;;4.72;1.70;;;21.90;74.20;;;;;;6308718;22;19999;-75
2023/09/25 10:43:08;;;;;;;2.08;1.23;;;22.00;74.40;;;;;;6308477;22;20005;-76
2023/09/25 10:45:35;;;;;;;2.13;1.10;;;22.10;73.70;;;;;;6308866;22;20023;-77
2023/09/25 10:48:01;;;;;;;4.88;1.27;;;22.10;73.50;;;;;;6308588;22;19999;-77
2023/09/25 10:50:28;;;;;;;2.15;1.13;;;22.10;73.90;;;;;;6308485;22;20070;-76
2023/09/25 10:52:54;;;;;;;5.97;1.25;;;22.10;73.80;;;;;;6308279;22;20007;-77
2023/09/25 10:55:20;;;;;;;2.65;1.25;;;22.20;73.70;;;;;;6308394;22;20038;-75
2023/09/25 10:57:46;;;;;;;3.00;1.20;;;22.10;73.90;;;;;;6308395;22;20002;-74
2023/09/25 11:00:15;;;;;;;4.88;1.25;;;22.20;74.70;;;;;;6308967;22;20038;-77
2023/09/25 11:02:41;;;;;;;3.15;1.38;;;22.20;74.90;;;;;;6280802;22;20322;-78
2023/09/25 11:05:09;;;;;;;3.10;1.35;;;22.20;74.90;;;;;;6308320;22;20008;-79
2023/09/25 11:07:37;;;;;;;2.97;1.00;;;22.30;74.40;;;;;;6308491;22;20491;-77
2023/09/25 11:10:04;;;;;;;3.15;1.23;;;22.30;73.70;;;;;;6308318;22;20017;-79
2023/09/25 11:12:30;;;;;;;3.72;1.33;;;22.30;74.30;;;;;;6307892;22;20031;-78
2023/09/25 11:14:57;;;;;;;1.65;1.00;;;22.30;73.60;;;;;;6308354;22;20007;-73
2023/09/25 11:17:24;;;;;;;3.40;1.20;;;22.40;73.70;;;;;;6307919;22;20007;-76
2023/09/25 11:19:52;;;;;;;2.55;1.17;;;22.40;74.40;;;;;;6308131;22;20023;-77
2023/09/25 11:22:41;;;;;;;5.07;1.30;;;22.40;75.10;;;;;;6308342;22;19999;-76
2023/09/25 11:25:13;;;;;;;1.80;1.27;;;22.50;75.20;;;;;;6287799;22;19999;-76
2023/09/25 11:27:49;;;;;;;4.00;1.30;;;22.60;75.10;;;;;;6304359;22;19999;-76
2023/09/25 11:30:15;;;;;;;2.20;1.30;;;22.60;74.30;;;;;;6303307;22;20004;-76
2023/09/25 11:32:43;;;;;;;3.63;1.02;;;22.70;74.30;;;;;;6303618;22;20324;-77
2023/09/25 11:35:18;;;;;;;2.78;1.55;;;22.70;73.60;;;;;;6303576;22;20302;-77
2023/09/25 11:37:57;;;;;;;2.15;1.20;;;22.80;74.00;;;;;;6304360;22;20073;-75
2023/09/25 11:40:23;;;;;;;3.72;1.20;;;22.80;73.90;;;;;;6303289;22;19999;-74
2023/09/25 11:42:49;;;;;;;2.35;1.00;;;22.80;73.50;;;;;;6304013;22;20006;-77
2023/09/25 11:45:15;;;;;;;3.88;1.73;;;22.80;72.50;;;;;;6303510;22;20003;-76
2023/09/25 11:47:42;;;;;;;1.83;0.90;;;22.80;72.70;;;;;;6304731;22;20008;-78
2023/09/25 11:50:10;;;;;;;6.25;1.30;;;22.80;72.40;;;;;;6304050;22;20132;-76
2023/09/25 11:52:37;;;;;;;4.40;1.15;;;22.80;73.70;;;;;;6305738;22;20006;-77
2023/09/25 11:55:08;;;;;;;1.38;1.00;;;22.80;75.20;;;;;;6307552;22;19999;-78
2023/09/25 11:57:33;;;;;;;5.45;1.20;;;22.90;74.80;;;;;;6307474;22;20056;-78
2023/09/25 11:59:59;;;;;;;7.20;1.88;;;22.90;74.40;;;;;;6307689;22;20371;-78
2023/09/25 12:02:28;;;;;;;2.22;1.00;;;23.00;74.00;;;;;;6307939;22;20049;-78
2023/09/25 12:04:54;;;;;;;4.55;1.10;;;23.00;74.20;;;;;;6307850;22;20490;-78
2023/09/25 12:07:20;;;;;;;3.15;0.95;;;23.10;73.90;;;;;;6307966;22;20082;-73
2023/09/25 12:09:47;;;;;;;1.70;0.82;;;23.10;73.50;;;;;;6307292;22;20286;-72
2023/09/25 12:12:13;;;;;;;2.65;1.00;;;23.10;74.20;;;;;;6307580;22;20071;-73
2023/09/25 12:14:40;;;;;;;2.05;1.00;;;23.10;72.70;;;;;;6307621;22;20057;-74
2023/09/25 12:17:07;;;;;;;6.82;1.00;;;23.10;76.00;;;;;;6307723;22;20022;-73
2023/09/25 12:19:33;;;;;;;1.40;0.80;;;23.10;74.20;;;;;;6307474;22;20007;-73
2023/09/25 12:22:00;;;;;;;1.77;0.80;;;23.20;73.20;;;;;;6307940;22;20019;-72
2023/09/25 12:24:25;;;;;;;2.20;0.82;;;23.20;72.60;;;;;;6308088;22;20011;-72
2023/09/25 12:26:51;;;;;;;1.85;0.80;;;23.20;72.80;;;;;;6307426;22;19999;-74
2023/09/25 12:29:17;;;;;;;3.00;0.70;;;23.20;73.60;;;;;;6307412;22;20003;-72
2023/09/25 12:31:43;;;;;;;1.23;1.13;;;23.30;73.60;;;;;;6279854;22;19999;-74
2023/09/25 12:34:09;;;;;;;4.72;0.90;;;23.30;73.90;;;;;;6307208;22;20016;-73
2023/09/25 12:36:34;;;;;;;1.90;0.68;;;23.30;73.60;;;;;;6307510;22;20371;-73
2023/09/25 12:39:00;;;;;;;1.50;0.80;;;23.30;74.20;;;;;;6307044;22;20060;-74
2023/09/25 12:41:27;;;;;;;2.08;0.70;;;23.40;74.20;;;;;;6307608;22;20003;-73
2023/09/25 12:43:53;;;;;;;1.45;0.80;;;23.30;74.00;;;;;;6280655;22;20010;-74